createdAt,value
2022-12-04T00:02:00.088Z,0.50
2022-12-04T00:04:28.535Z,0.50
2022-12-04T00:06:59.137Z,0.50
2022-12-04T00:09:27.828Z,0.40
2022-12-04T00:11:56.219Z,0.50
2022-12-04T00:14:24.496Z,0.60
2022-12-04T00:16:53.035Z,0.50
2022-12-04T00:19:22.759Z,0.50
2022-12-04T00:21:51.788Z,0.60
2022-12-04T00:24:21.598Z,0.60
2022-12-04T00:26:50.023Z,0.60
2022-12-04T00:29:19.056Z,0.60
2022-12-04T00:31:47.557Z,0.60
2022-12-04T00:34:15.919Z,0.50
2022-12-04T00:36:44.626Z,0.50
2022-12-04T00:39:13.601Z,0.50
2022-12-04T00:41:43.434Z,0.80
2022-12-04T00:44:11.815Z,1.20
2022-12-04T00:46:40.098Z,1.40
2022-12-04T00:49:08.473Z,1.70
2022-12-04T00:51:36.821Z,1.60
2022-12-04T00:54:05.435Z,1.40
2022-12-04T00:56:33.671Z,1.20
2022-12-04T00:59:03.533Z,1.10
2022-12-04T01:01:32.375Z,1.10
2022-12-04T01:04:00.835Z,1.00
2022-12-04T01:06:32.117Z,0.90
2022-12-04T01:09:03.574Z,0.80
2022-12-04T01:11:32.593Z,0.80
2022-12-04T01:14:03.158Z,0.70
2022-12-04T01:16:34.969Z,0.70
2022-12-04T01:19:04.091Z,0.70
2022-12-04T01:21:32.690Z,0.70
2022-12-04T01:24:01.223Z,0.80
2022-12-04T01:26:29.649Z,0.90
2022-12-04T01:28:58.485Z,0.80
2022-12-04T01:31:28.831Z,0.70
2022-12-04T01:33:57.248Z,0.70
2022-12-04T01:36:28.100Z,0.60
2022-12-04T01:38:57.326Z,0.70
2022-12-04T01:41:29.169Z,0.70
2022-12-04T01:44:17.924Z,0.70
2022-12-04T01:46:53.673Z,0.60
2022-12-04T01:49:30.453Z,0.70
2022-12-04T01:52:05.721Z,0.60
2022-12-04T01:54:40.474Z,0.70
2022-12-04T01:57:16.046Z,0.60
2022-12-04T01:59:51.122Z,0.50
2022-12-04T02:02:27.874Z,0.60
2022-12-04T02:04:57.510Z,0.60
2022-12-04T02:07:26.139Z,0.70
2022-12-04T02:09:56.293Z,0.60
2022-12-04T02:12:36.395Z,0.80
2022-12-04T02:15:17.579Z,0.80
2022-12-04T02:17:57.333Z,1.00
2022-12-04T02:20:37.890Z,0.90
2022-12-04T02:23:44.983Z,0.90
2022-12-04T02:26:31.996Z,0.80
2022-12-04T02:29:11.018Z,0.80
2022-12-04T02:31:47.432Z,0.80
2022-12-04T02:34:26.927Z,0.80
2022-12-04T02:37:03.541Z,0.70
2022-12-04T02:39:41.270Z,0.70
2022-12-04T02:42:18.809Z,0.70
2022-12-04T02:44:57.048Z,0.70
2022-12-04T02:47:27.850Z,0.70
2022-12-04T02:50:01.298Z,0.70
2022-12-04T02:52:35.011Z,0.70
2022-12-04T02:55:09.372Z,0.70
2022-12-04T02:57:45.446Z,0.80
2022-12-04T03:00:17.524Z,0.80
2022-12-04T03:02:54.333Z,0.80
2022-12-04T03:05:30.526Z,0.70
2022-12-04T03:08:05.664Z,0.70
2022-12-04T03:10:41.247Z,0.60
2022-12-04T03:13:14.936Z,0.70
2022-12-04T03:15:49.304Z,0.80
2022-12-04T03:18:23.636Z,0.80
2022-12-04T03:21:00.759Z,0.80
2022-12-04T03:23:35.785Z,0.80
2022-12-04T03:26:13.772Z,0.80
2022-12-04T03:28:53.899Z,0.80
2022-12-04T03:31:36.172Z,0.80
2022-12-04T03:34:08.733Z,0.80
2022-12-04T03:36:46.278Z,0.80
2022-12-04T03:39:24.051Z,0.70
2022-12-04T03:42:01.189Z,0.80
2022-12-04T03:44:39.267Z,0.90
2022-12-04T03:47:15.705Z,1.00
2022-12-04T03:49:52.048Z,1.00
2022-12-04T03:52:30.909Z,1.00
2022-12-04T03:55:05.362Z,0.90
2022-12-04T03:57:40.591Z,0.90
2022-12-04T04:00:14.616Z,0.80
2022-12-04T04:02:56.133Z,0.90
2022-12-04T04:05:28.525Z,0.90
2022-12-04T04:08:21.919Z,0.90
2022-12-04T04:10:52.608Z,0.90
2022-12-04T04:13:46.272Z,0.90
2022-12-04T04:16:37.074Z,0.90
2022-12-04T04:19:27.395Z,0.90
2022-12-04T04:22:16.993Z,0.90
2022-12-04T04:24:49.730Z,0.80
2022-12-04T04:27:18.139Z,0.90
2022-12-04T04:29:52.028Z,0.90
2022-12-04T04:32:31.522Z,0.80
2022-12-04T04:35:15.384Z,0.80
2022-12-04T04:37:55.999Z,0.80
2022-12-04T04:40:37.329Z,0.90
2022-12-04T04:43:12.764Z,0.90
2022-12-04T04:45:48.364Z,0.90
2022-12-04T04:48:24.640Z,1.00
2022-12-04T04:50:56.205Z,1.00
2022-12-04T04:53:31.105Z,1.00
2022-12-04T04:56:00.626Z,1.00
2022-12-04T04:58:28.941Z,1.00
2022-12-04T05:01:05.537Z,1.00
2022-12-04T05:03:34.096Z,1.00
2022-12-04T05:06:03.769Z,0.90
2022-12-04T05:08:32.117Z,1.00
2022-12-04T05:11:00.604Z,1.00
2022-12-04T05:13:30.603Z,0.90
2022-12-04T05:16:01.113Z,1.00
2022-12-04T05:18:30.645Z,0.90
2022-12-04T05:20:58.304Z,0.80
2022-12-04T05:23:27.923Z,0.80
2022-12-04T05:26:01.609Z,0.90
2022-12-04T05:28:30.020Z,0.90
2022-12-04T05:30:58.560Z,0.90
2022-12-04T05:33:26.974Z,0.90
2022-12-04T05:35:59.793Z,0.90
2022-12-04T05:38:29.843Z,0.80
2022-12-04T05:40:59.846Z,0.90
2022-12-04T05:43:28.909Z,1.00
2022-12-04T05:46:01.683Z,0.90
2022-12-04T05:48:30.109Z,0.90
2022-12-04T05:50:58.506Z,0.90
2022-12-04T05:53:26.745Z,0.90
2022-12-04T05:56:02.522Z,0.90
2022-12-04T05:58:31.181Z,1.00
2022-12-04T06:00:59.500Z,1.00
2022-12-04T06:03:28.036Z,0.90
2022-12-04T06:05:56.373Z,0.90
2022-12-04T06:08:24.656Z,0.90
2022-12-04T06:10:53.015Z,0.90
2022-12-04T06:13:22.605Z,0.80
2022-12-04T06:15:50.966Z,0.80
2022-12-04T06:18:19.262Z,0.80
2022-12-04T06:20:47.559Z,0.80
2022-12-04T06:23:15.868Z,0.80
2022-12-04T06:25:44.179Z,0.90
2022-12-04T06:28:12.400Z,0.90
2022-12-04T06:30:42.000Z,0.90
2022-12-04T06:33:10.331Z,0.80
2022-12-04T06:35:38.633Z,0.90
2022-12-04T06:38:07.939Z,1.00
2022-12-04T06:40:36.145Z,0.90
2022-12-04T06:43:05.341Z,0.90
2022-12-04T06:45:33.854Z,0.90
2022-12-04T06:48:03.494Z,0.90
2022-12-04T06:50:31.719Z,0.90
2022-12-04T06:53:03.595Z,1.00
2022-12-04T06:55:36.272Z,0.90
2022-12-04T06:58:04.545Z,1.00
2022-12-04T07:00:32.813Z,0.90
2022-12-04T07:03:01.197Z,1.00
2022-12-04T07:05:30.829Z,1.00
2022-12-04T07:07:59.118Z,1.10
2022-12-04T07:10:27.702Z,1.10
2022-12-04T07:12:55.939Z,1.10
2022-12-04T07:15:24.199Z,1.00
2022-12-04T07:17:52.430Z,1.10
2022-12-04T07:20:20.797Z,1.10
2022-12-04T07:22:50.373Z,1.10
2022-12-04T07:25:19.711Z,1.00
2022-12-04T07:27:47.990Z,1.10
2022-12-04T07:30:16.825Z,1.10
2022-12-04T07:32:45.162Z,1.10
2022-12-04T07:35:13.789Z,1.10
2022-12-04T07:37:42.073Z,1.10
2022-12-04T07:40:13.834Z,1.10
2022-12-04T07:42:42.112Z,1.10
2022-12-04T07:45:11.528Z,1.10
2022-12-04T07:47:39.859Z,1.20
2022-12-04T07:50:09.301Z,1.10
2022-12-04T07:52:38.446Z,1.20
2022-12-04T07:55:08.513Z,1.20
2022-12-04T07:57:38.190Z,1.30
2022-12-04T08:00:08.419Z,1.30
2022-12-04T08:02:40.326Z,1.20
2022-12-04T08:05:09.188Z,1.40
2022-12-04T08:07:37.533Z,1.30
2022-12-04T08:10:07.675Z,1.30
2022-12-04T08:12:37.295Z,1.30
2022-12-04T08:15:06.756Z,1.30
2022-12-04T08:17:35.054Z,1.30
2022-12-04T08:20:03.277Z,1.40
2022-12-04T08:22:31.549Z,1.30
2022-12-04T08:24:59.763Z,1.40
2022-12-04T08:27:27.984Z,1.40
2022-12-04T08:29:57.813Z,1.30
2022-12-04T08:32:26.517Z,1.40
2022-12-04T08:34:57.798Z,1.40
2022-12-04T08:37:27.563Z,1.50
2022-12-04T08:39:56.054Z,1.50
2022-12-04T08:42:24.437Z,1.50
2022-12-04T08:44:52.683Z,1.50
2022-12-04T08:47:22.309Z,1.50
2022-12-04T08:49:50.638Z,1.60
2022-12-04T08:52:19.081Z,1.60
2022-12-04T08:54:47.512Z,1.70
2022-12-04T08:57:15.749Z,1.70
2022-12-04T08:59:43.974Z,1.70
2022-12-04T09:02:12.939Z,1.70
2022-12-04T09:04:42.560Z,1.80
2022-12-04T09:07:11.032Z,1.70
2022-12-04T09:09:43.541Z,1.80
2022-12-04T09:12:14.872Z,1.90
2022-12-04T09:14:43.129Z,1.90
2022-12-04T09:17:11.545Z,1.90
2022-12-04T09:19:39.784Z,1.90
2022-12-04T09:22:09.392Z,2.00
2022-12-04T09:24:37.786Z,2.10
2022-12-04T09:27:11.290Z,2.10
2022-12-04T09:29:42.630Z,2.10
2022-12-04T09:32:10.898Z,2.10
2022-12-04T09:34:39.268Z,2.20
2022-12-04T09:37:08.981Z,2.30
2022-12-04T09:39:37.412Z,2.40
2022-12-04T09:42:30.101Z,2.40
2022-12-04T09:45:08.458Z,2.30
2022-12-04T09:47:43.822Z,2.30
2022-12-04T09:50:21.548Z,2.40
2022-12-04T09:53:00.633Z,2.40
2022-12-04T09:55:35.832Z,2.40
2022-12-04T09:58:12.182Z,2.40
2022-12-04T10:00:45.415Z,2.30
2022-12-04T10:03:18.995Z,2.40
2022-12-04T10:05:58.945Z,2.40
2022-12-04T10:08:31.577Z,2.40
2022-12-04T10:11:13.471Z,2.50
2022-12-04T10:14:11.519Z,2.50
2022-12-04T10:16:58.569Z,2.50
2022-12-04T10:19:37.958Z,2.50
2022-12-04T10:22:17.768Z,2.60
2022-12-04T10:24:53.592Z,2.50
2022-12-04T10:27:26.848Z,2.60
2022-12-04T10:30:03.236Z,2.60
2022-12-04T10:32:34.531Z,2.60
2022-12-04T10:35:20.558Z,2.70
2022-12-04T10:37:55.137Z,2.70
2022-12-04T10:40:33.599Z,2.70
2022-12-04T10:43:15.136Z,2.60
2022-12-04T10:45:44.055Z,2.60
2022-12-04T10:48:24.187Z,2.70
2022-12-04T10:50:52.593Z,2.70
2022-12-04T10:53:31.916Z,2.70
2022-12-04T10:56:13.349Z,2.70
2022-12-04T10:58:42.214Z,2.70
2022-12-04T11:01:15.498Z,2.80
2022-12-04T11:03:48.434Z,2.80
2022-12-04T11:06:16.929Z,2.80
2022-12-04T11:08:51.874Z,2.80
2022-12-04T11:11:28.910Z,2.80
2022-12-04T11:14:13.817Z,2.90
2022-12-04T11:16:45.478Z,2.90
2022-12-04T11:19:27.257Z,2.90
2022-12-04T11:21:59.487Z,2.90
2022-12-04T11:24:33.176Z,2.90
2022-12-04T11:27:05.718Z,2.90
2022-12-04T11:29:39.143Z,2.90
2022-12-04T11:32:18.121Z,2.90
2022-12-04T11:34:47.439Z,2.90
2022-12-04T11:37:23.465Z,2.90
2022-12-04T11:39:53.506Z,2.90
2022-12-04T11:42:28.583Z,2.90
2022-12-04T11:44:59.211Z,3.00
2022-12-04T11:47:31.596Z,3.00
2022-12-04T11:50:27.586Z,2.90
2022-12-04T11:53:11.290Z,2.90
2022-12-04T11:56:11.289Z,2.90
2022-12-04T11:59:13.537Z,2.90
2022-12-04T12:01:51.002Z,2.90
2022-12-04T12:05:04.349Z,3.00
2022-12-04T12:07:58.962Z,3.00
2022-12-04T12:10:44.608Z,3.00
2022-12-04T12:13:26.874Z,3.00
2022-12-04T12:16:10.698Z,3.00
2022-12-04T12:19:09.891Z,3.10
2022-12-04T12:21:46.647Z,3.10
2022-12-04T12:24:27.931Z,3.10
2022-12-04T12:27:17.142Z,3.00
2022-12-04T12:30:03.832Z,3.10
2022-12-04T12:32:54.403Z,3.10
2022-12-04T12:35:30.538Z,3.10
2022-12-04T12:38:03.819Z,3.00
2022-12-04T12:40:38.355Z,3.10
2022-12-04T12:43:14.691Z,3.10
2022-12-04T12:45:53.792Z,3.20
2022-12-04T12:48:33.376Z,3.20
2022-12-04T12:51:29.105Z,3.20
2022-12-04T12:54:14.338Z,3.20
2022-12-04T12:56:50.752Z,3.40
2022-12-04T12:59:23.506Z,3.40
2022-12-04T13:02:01.181Z,3.40
2022-12-04T13:04:41.507Z,3.40
2022-12-04T13:07:14.011Z,3.40
2022-12-04T13:09:49.467Z,3.40
2022-12-04T13:12:21.636Z,3.50
2022-12-04T13:14:50.473Z,3.40
2022-12-04T13:17:26.668Z,3.40
2022-12-04T13:20:03.065Z,3.40
2022-12-04T13:22:51.086Z,3.40
2022-12-04T13:25:49.287Z,3.40
2022-12-04T13:28:37.975Z,3.50
2022-12-04T13:31:24.994Z,3.50
2022-12-04T13:34:19.010Z,3.50
2022-12-04T13:37:22.756Z,3.50
2022-12-04T13:40:31.553Z,3.60
2022-12-04T13:43:25.797Z,3.70
2022-12-04T13:45:57.772Z,3.60
2022-12-04T13:48:36.395Z,3.70
2022-12-04T13:51:36.124Z,3.60
2022-12-04T13:54:29.783Z,3.70
2022-12-04T13:57:17.289Z,3.60
2022-12-04T13:59:47.499Z,3.70
2022-12-04T14:02:37.681Z,3.70
2022-12-04T14:05:10.222Z,3.70
2022-12-04T14:07:43.659Z,3.80
2022-12-04T14:10:30.605Z,3.90
2022-12-04T14:13:03.497Z,3.70
2022-12-04T14:15:35.544Z,3.80
2022-12-04T14:18:18.508Z,4.00
2022-12-04T14:20:57.951Z,4.00
2022-12-04T14:23:36.211Z,4.00
2022-12-04T14:26:06.764Z,3.90
2022-12-04T14:28:45.082Z,3.90
2022-12-04T14:31:35.418Z,4.00
2022-12-04T14:34:21.156Z,4.10
2022-12-04T14:36:53.108Z,4.00
2022-12-04T14:39:28.211Z,4.00
2022-12-04T14:42:14.730Z,4.00
2022-12-04T14:44:46.372Z,4.00
2022-12-04T14:47:28.873Z,4.10
2022-12-04T14:50:17.518Z,4.00
2022-12-04T14:52:53.645Z,4.00
2022-12-04T14:55:33.803Z,4.10
2022-12-04T14:58:27.172Z,4.00
2022-12-04T15:00:59.887Z,4.00
2022-12-04T15:03:30.725Z,4.00
2022-12-04T15:06:09.510Z,4.00
2022-12-04T15:08:37.849Z,4.00
2022-12-04T15:11:25.758Z,3.90
2022-12-04T15:13:55.497Z,4.00
2022-12-04T15:16:24.366Z,4.00
2022-12-04T15:18:57.466Z,4.00
2022-12-04T15:21:35.340Z,4.00
2022-12-04T15:24:09.072Z,4.00
2022-12-04T15:26:39.783Z,4.10
2022-12-04T15:29:18.852Z,4.10
2022-12-04T15:31:56.517Z,4.10
2022-12-04T15:34:35.399Z,4.10
2022-12-04T15:37:10.061Z,4.10
2022-12-04T15:39:38.852Z,4.10
2022-12-04T15:42:17.378Z,4.10
2022-12-04T15:45:00.790Z,4.10
2022-12-04T15:47:31.185Z,4.10
2022-12-04T15:50:11.078Z,4.10
2022-12-04T15:52:49.993Z,4.10
2022-12-04T15:55:20.783Z,4.10
2022-12-04T15:57:55.513Z,4.10
2022-12-04T16:00:30.835Z,4.20
2022-12-04T16:03:00.761Z,4.20
2022-12-04T16:05:35.333Z,4.20
2022-12-04T16:08:24.627Z,4.20
2022-12-04T16:11:05.100Z,4.20
2022-12-04T16:13:37.254Z,4.20
2022-12-04T16:16:13.245Z,4.20
2022-12-04T16:18:43.124Z,4.30
2022-12-04T16:21:17.372Z,4.20
2022-12-04T16:23:46.228Z,4.30
2022-12-04T16:26:16.638Z,4.20
2022-12-04T16:28:45.645Z,4.20
2022-12-04T16:31:17.804Z,4.30
2022-12-04T16:33:46.488Z,4.30
2022-12-04T16:36:14.836Z,4.30
2022-12-04T16:38:43.227Z,4.40
2022-12-04T16:41:16.084Z,4.40
2022-12-04T16:43:44.732Z,4.40
2022-12-04T16:46:17.445Z,4.40
2022-12-04T16:48:45.904Z,4.40
2022-12-04T16:51:18.437Z,4.40
2022-12-04T16:53:47.162Z,4.40
2022-12-04T16:56:15.492Z,4.40
2022-12-04T16:58:44.497Z,4.40
2022-12-04T17:01:22.813Z,4.40
2022-12-04T17:03:51.856Z,4.50
2022-12-04T17:06:20.503Z,4.50
2022-12-04T17:08:48.757Z,4.50
2022-12-04T17:11:18.665Z,4.60
2022-12-04T17:13:47.013Z,4.50
2022-12-04T17:16:19.717Z,4.50
2022-12-04T17:18:48.332Z,4.60
2022-12-04T17:21:16.733Z,4.60
2022-12-04T17:23:45.755Z,4.60
2022-12-04T17:26:16.106Z,4.60
2022-12-04T17:28:44.717Z,4.70
2022-12-04T17:31:20.792Z,4.70
2022-12-04T17:33:49.573Z,4.60
2022-12-04T17:36:21.395Z,4.60
2022-12-04T17:38:54.332Z,4.60
2022-12-04T17:41:22.816Z,4.60
2022-12-04T17:43:51.525Z,4.60
2022-12-04T17:46:24.450Z,4.60
2022-12-04T17:48:56.217Z,4.70
2022-12-04T17:51:26.351Z,4.70
2022-12-04T17:53:54.840Z,4.70
2022-12-04T17:56:25.092Z,4.70
2022-12-04T17:58:54.325Z,4.60
2022-12-04T18:01:26.818Z,4.60
2022-12-04T18:03:57.555Z,4.60
2022-12-04T18:06:30.186Z,4.60
2022-12-04T18:08:59.146Z,4.60
2022-12-04T18:11:30.068Z,4.80
2022-12-04T18:14:01.359Z,4.80
2022-12-04T18:16:34.989Z,4.90
2022-12-04T18:19:05.051Z,5.00
2022-12-04T18:21:34.897Z,5.00
2022-12-04T18:24:05.249Z,5.10
2022-12-04T18:26:36.108Z,5.00
2022-12-04T18:29:04.735Z,5.00
2022-12-04T18:31:34.930Z,5.00
2022-12-04T18:34:03.307Z,4.90
2022-12-04T18:36:33.009Z,4.80
2022-12-04T18:39:03.930Z,4.80
2022-12-04T18:41:33.072Z,4.80
2022-12-04T18:44:02.881Z,4.80
2022-12-04T18:46:32.857Z,4.70
2022-12-04T18:49:03.236Z,4.70
2022-12-04T18:51:34.616Z,4.70
2022-12-04T18:54:05.816Z,4.80
2022-12-04T18:56:36.335Z,4.70
2022-12-04T18:59:08.026Z,4.80
2022-12-04T19:01:36.739Z,4.70
2022-12-04T19:04:10.190Z,4.80
2022-12-04T19:06:41.270Z,4.80
2022-12-04T19:09:13.037Z,4.80
2022-12-04T19:11:42.309Z,4.70
2022-12-04T19:14:22.490Z,4.70
2022-12-04T19:16:52.389Z,4.80
2022-12-04T19:19:22.079Z,4.80
2022-12-04T19:21:50.394Z,4.70
2022-12-04T19:24:19.010Z,4.80
2022-12-04T19:26:47.953Z,4.80
2022-12-04T19:29:16.337Z,4.70
2022-12-04T19:31:44.853Z,4.70
2022-12-04T19:34:13.276Z,4.70
2022-12-04T19:36:45.319Z,4.70
2022-12-04T19:39:13.750Z,4.80
2022-12-04T19:41:42.091Z,4.70
2022-12-04T19:44:46.828Z,4.80
2022-12-04T19:47:00.284Z,4.70
2022-12-04T19:49:29.003Z,4.70
2022-12-04T19:51:58.743Z,4.70
2022-12-04T19:54:28.076Z,4.70
2022-12-04T19:56:56.422Z,4.70
2022-12-04T19:59:24.956Z,4.70
2022-12-04T20:01:53.570Z,4.70
2022-12-04T20:04:22.056Z,4.70
2022-12-04T20:06:50.390Z,4.80
2022-12-04T20:09:23.169Z,4.70
2022-12-04T20:11:52.262Z,4.80
2022-12-04T20:14:20.686Z,4.70
2022-12-04T20:16:49.059Z,4.70
2022-12-04T20:19:20.057Z,4.70
2022-12-04T20:21:48.484Z,4.80
2022-12-04T20:24:18.574Z,4.60
2022-12-04T20:26:48.622Z,4.60
2022-12-04T20:29:19.057Z,4.70
2022-12-04T20:31:48.499Z,4.70
2022-12-04T20:34:20.046Z,4.70
2022-12-04T20:36:49.819Z,4.70
2022-12-04T20:39:20.416Z,4.80
2022-12-04T20:41:50.314Z,4.80
2022-12-04T20:44:20.428Z,4.70
2022-12-04T20:46:51.993Z,4.70
2022-12-04T20:49:22.324Z,4.70
2022-12-04T20:51:52.878Z,4.70
2022-12-04T20:54:23.809Z,4.70
2022-12-04T20:56:54.217Z,4.60
2022-12-04T20:59:25.167Z,4.70
2022-12-04T21:01:54.710Z,4.70
2022-12-04T21:04:23.975Z,4.80
2022-12-04T21:06:52.408Z,4.70
2022-12-04T21:09:26.669Z,4.70
2022-12-04T21:11:56.934Z,4.70
2022-12-04T21:14:46.528Z,4.80
2022-12-04T21:17:18.789Z,4.70
2022-12-04T21:19:49.512Z,4.80
2022-12-04T21:22:20.100Z,4.70
2022-12-04T21:24:49.139Z,4.70
2022-12-04T21:27:21.239Z,4.70
2022-12-04T21:29:50.521Z,4.70
2022-12-04T21:32:20.672Z,4.70
2022-12-04T21:34:49.370Z,4.70
2022-12-04T21:37:17.712Z,4.80
2022-12-04T21:39:46.103Z,4.70
2022-12-04T21:42:32.938Z,4.70
2022-12-04T21:45:05.987Z,4.70
2022-12-04T21:47:36.317Z,4.70
2022-12-04T21:50:06.356Z,4.70
2022-12-04T21:52:34.783Z,4.70
2022-12-04T21:55:03.317Z,4.70
2022-12-04T21:57:31.802Z,4.70
2022-12-04T22:00:00.419Z,4.70
2022-12-04T22:02:30.425Z,4.70
2022-12-04T22:04:58.727Z,4.80
2022-12-04T22:07:27.092Z,4.80
2022-12-04T22:09:55.632Z,4.70
2022-12-04T22:12:48.585Z,4.60
2022-12-04T22:15:13.273Z,4.70
2022-12-04T22:17:43.127Z,4.80
2022-12-04T22:20:11.978Z,4.70
2022-12-04T22:22:40.292Z,4.70
2022-12-04T22:25:09.657Z,4.70
2022-12-04T22:27:38.008Z,4.70
2022-12-04T22:30:08.710Z,4.70
2022-12-04T22:32:37.089Z,4.70
2022-12-04T22:35:07.748Z,4.60
2022-12-04T22:37:41.094Z,4.70
2022-12-04T22:40:14.643Z,4.70
2022-12-04T22:42:43.706Z,4.70
2022-12-04T22:45:12.903Z,4.70
2022-12-04T22:47:41.755Z,4.70
2022-12-04T22:50:12.847Z,4.70
2022-12-04T22:52:41.167Z,4.70
2022-12-04T22:55:10.085Z,4.80
2022-12-04T22:57:38.368Z,4.80
2022-12-04T23:00:09.451Z,4.80
2022-12-04T23:02:38.001Z,4.70
2022-12-04T23:05:06.683Z,4.70
2022-12-04T23:07:37.326Z,4.80
2022-12-04T23:10:09.091Z,4.80
2022-12-04T23:12:37.458Z,4.80
2022-12-04T23:15:07.334Z,5.40
2022-12-04T23:17:35.995Z,5.50
2022-12-04T23:20:05.256Z,5.60
2022-12-04T23:22:33.981Z,5.70
2022-12-04T23:25:03.999Z,5.70
2022-12-04T23:27:32.867Z,5.50
2022-12-04T23:30:01.248Z,5.30
2022-12-04T23:32:30.990Z,5.10
2022-12-04T23:34:59.365Z,5.00
2022-12-04T23:37:27.658Z,4.90
2022-12-04T23:39:56.418Z,4.90
2022-12-04T23:42:26.418Z,4.90
2022-12-04T23:44:54.730Z,4.90
2022-12-04T23:47:23.161Z,4.90
2022-12-04T23:49:51.887Z,4.90
2022-12-04T23:52:20.281Z,4.80
2022-12-04T23:54:48.589Z,4.80
2022-12-04T23:57:16.961Z,4.80
2022-12-04T23:59:46.631Z,4.70
